METAR Data
IDs: Format: Raw Decoded Include TAF

Data at: 1145 UTC 16 Feb 2019

PANA 161056Z AUTO 18011KT 10SM CLR M02/M03 A2988 RMK AO2 SLP116 T10171028 FZRANO
PANA 160956Z AUTO 18012KT 10SM FEW060 BKN075 OVC090 M02/M02 A2986 RMK AO2 SLP111 T10171022 FZRANO
PANA 160856Z AUTO 19012KT 10SM FEW039 BKN070 M02/M02 A2984 RMK AO2 SLP104 T10171022 400171067 53025 FZRANO
PANA 160756Z AUTO 18009KT 10SM CLR M02/M02 A2981 RMK AO2 SLP092 T10171022 FZRANO
PANA 160621Z AUTO 19013KT 10SM FEW010 BKN041 BKN055 00/M01 A2977 RMK AO2 PWINO FZRANO
PANA 160556Z AUTO 19016KT 10SM OVC010 00/M01 A2977 RMK AO2 SLP079 60001 T00001011 10017 21011 53019 PWINO FZRANO
PANA 160514Z AUTO 19015KT 10SM BKN014 OVC019 00/M02 A2975 RMK AO2 PWINO FZRANO
PANA 160503Z AUTO 19015KT 10SM BKN016 OVC027 M01/M02 A2975 RMK AO2 PWINO FZRANO
PANA 160456Z AUTO 19016KT 10SM BKN014 OVC027 M01/M02 A2974 RMK AO2 UPEMM SLP071 T10061017 FZRANO
PANA 160403Z AUTO 18013KT 9SM FEW007 OVC014 M01/M01 A2973 RMK AO2 UPEMM FZRANO
PANA 160356Z AUTO 19016G20KT 8SM UP FEW007 BKN016 OVC021 M01/M01 A2973 RMK AO2 SLP066 P0000 T10061011 FZRANO
PANA 160303Z AUTO 17014KT 10SM UP SCT009 BKN022 OVC028 M01/M01 A2971 RMK AO2 P0000 FZRANO
PANA 160256Z AUTO 16013G20KT 10SM UP SCT009 BKN013 OVC022 M01/M01 A2971 RMK AO2 SLP060 P0000 60001 T10061011 56001 FZRANO
PANA 160227Z AUTO 16014G19KT 4SM UP BR OVC013 M01/M02 A2971 RMK AO2 P0000 FZRANO
PANA 160156Z AUTO 15017G23KT 10SM UP OVC017 M01/M02 A2971 RMK AO2 UPB0057 SLP060 P0001 T10061022 FZRANO
PANA 160140Z AUTO 15014G21KT 3SM UP BR OVC021 M01/M02 A2971 RMK AO2 UPB0057 P0001 FZRANO
PANA 160132Z AUTO 14012G18KT 1 3/4SM UP BR OVC021 M01/M02 A2971 RMK AO2 UPB0057 P0000 FZRANO
PANA 160100Z AUTO 15016G28KT 3SM UP BR FEW012 OVC023 M01/M02 A2971 RMK AO2 UPB0057 P0000 FZRANO
PANA 160056Z AUTO 15015G28KT 1 3/4SM BR SCT012 BKN019 OVC026 M01/M02 A2971 RMK AO2 PK WND 16031/0002 RAE2359SNB54E56 SLP061 P0000 T10061017 FZRANO
PANA 160046Z AUTO 16016G25KT 1SM BR BKN012 OVC021 M01/M02 A2972 RMK AO2 PK WND 16031/0002 RAE2359 P0000 PWINO FZRANO
PANA 160036Z AUTO 14015G20KT 3/4SM BR BKN014 OVC019 M01/M02 A2972 RMK AO2 PK WND 16031/0002 RAE2359 P0000 PWINO FZRANO
PANA 160024Z AUTO 15016G25KT 1SM BR BKN014 OVC024 M01/M02 A2973 RMK AO2 PK WND 16031/0002 RAE2359 P0000 PWINO FZRANO
PANA 160017Z AUTO 16018G24KT 1 1/4SM BR BKN014 BKN025 OVC034 M01/M02 A2973 RMK AO2 PK WND 16031/0002 RAE2359 P0000 PWINO FZRANO
PANA 160007Z AUTO 15022G31KT 1 3/4SM HZ SCT010 BKN027 OVC043 01/M03 A2973 RMK AO2 PK WND 16031/0002 VIS 3/4V5 RAE2359 P0000 PWINO FZRANO
PANA 160005Z AUTO 16020G31KT 2 1/2SM HZ FEW010 BKN027 OVC043 01/M04 A2973 RMK AO2 PK WND 16031/0002 VIS 1V5 RAE2359 P0000 PWINO FZRANO
PANA 152256Z AUTO 10008KT 10SM FEW027 BKN035 OVC055 M01/M04 A2973 RMK AO2 SLP068 T10061044 PWINO FZRANO
PANA 152249Z AUTO 12008KT 9SM FEW024 BKN035 OVC055 M01/M05 A2974 RMK AO2 PWINO FZRANO
PANA 152156Z AUTO 10010KT 10SM OVC095 M01/M06 A2975 RMK AO2 SLP072 T10111056 PWINO FZRANO $
PANA 151856Z AUTO 08010KT 10SM CLR M07/M08 A2982 RMK AO2 SLP098 T10671078 PWINO FZRANO
PANA 151756Z AUTO 08011KT 10SM CLR M06/M07 A2984 RMK AO2 SLP104 60000 T10611067 11022 21061 56027 PWINO FZRANO
PANA 151656Z AUTO 09008KT 10SM CLR M05/M06 A2987 RMK AO2 SLP113 T10501056 PWINO FZRANO
PANA 151556Z AUTO 09005KT 10SM CLR M04/M06 A2988 RMK AO2 SLP118 T10391056 FZRANO
PANA 151531Z AUTO 10006KT 10SM SCT019 M03/M04 A2990 RMK AO2 FZRANO
PANA 151456Z AUTO 09005KT 10SM OVC019 M03/M04 A2992 RMK AO2 UPE00SNB23E28 SLP131 P0000 60000 T10331044 58018 FZRANO
PANA 151356Z AUTO 09005KT 7SM UP OVC019 M04/M05 A2995 RMK AO2 UPB1257E29B52SNB43E52 SLP142 P0000 T10391050 FZRANO
PANA 151256Z AUTO 08004KT 7SM BKN007 OVC019 M03/M05 A2997 RMK AO2 UPB50E56SNB18E50 SLP148 P0000 T10331050 FZRANO
PANA 151245Z AUTO 08006KT 10SM -SN SCT007 OVC019 M02/M04 A2997 RMK AO2 SNB18 P0000 FZRANO
PANA 151238Z AUTO 10006KT 10SM FEW005 BKN009 OVC019 M02/M03 A2997 RMK AO2 SNB18E27 P0000 FZRANO
PANA 151230Z AUTO 10004KT 9SM SCT005 OVC019 M02/M03 A2998 RMK AO2 SNB18E27 P0000 FZRANO
PANA 151156Z AUTO 16006KT 10SM OVC005 M02/M03 A2998 RMK AO2 SLP151 70004 T10221033 11011 21028 50001 FZRANO
PANA 151056Z AUTO 17006KT 10SM OVC007 M02/M03 A2999 RMK AO2 SLP155 T10171028 FZRANO
PANA 150956Z AUTO 19010KT 10SM OVC007 M01/M02 A2998 RMK AO2 SLP152 T10111022 PWINO FZRANO
PANA 150937Z AUTO 18008KT 10SM BKN007 OVC023 M01/M02 A2998 RMK AO2 PWINO FZRANO
PANA 150856Z AUTO 19010KT 10SM FEW008 OVC023 M02/M02 A2998 RMK AO2 SLP150 T10171022 410171067 50006 PWINO FZRANO
PANA 150854Z AUTO 19009KT 10SM SCT008 OVC023 M02/M02 A2998 RMK AO2 410171067 PWINO FZRANO
PANA 150756Z AUTO 18009KT 10SM OVC006 M02/M03 A2996 RMK AO2 SLP145 T10221033 PWINO FZRANO
PANA 150656Z AUTO 18007KT 10SM OVC006 M02/M03 A2996 RMK AO2 SLP143 T10171028 PWINO FZRANO
PANA 150606Z AUTO 19008KT 10SM OVC008 M02/M03 A2995 RMK AO2 PWINO FZRANO
PANA 150556Z AUTO 19008KT 10SM OVC010 M02/M03 A2995 RMK AO2 SLP140 60002 T10171028 11017 21039 53014 PWINO FZRANO
PANA 150456Z AUTO 19011KT 10SM OVC012 M02/M03 A2993 RMK AO2 SLP135 T10171028 PWINO FZRANO
PANA 150356Z AUTO 19012KT 10SM OVC010 M02/M03 A2991 RMK AO2 SLP129 T10221033 PWINO FZRANO
PANA 150256Z AUTO 19014G22KT 10SM OVC012 M02/M04 A2990 RMK AO2 SLP126 60002 T10221039 58005 PWINO FZRANO
PANA 150236Z AUTO 18014G17KT 10SM OVC014 M02/M04 A2991 RMK AO2 PWINO FZRANO
PANA 150156Z AUTO 15010KT 10SM OVC018 M03/M05 A2991 RMK AO2 SLP128 T10331050 PWINO FZRANO
PANA 150120Z AUTO 15011G16KT 10SM FEW011 OVC020 M03/M05 A2992 RMK AO2 FZRANO
PANA 150056Z AUTO 14012KT 10SM BKN013 OVC020 M04/M05 A2992 RMK AO2 SLP130 P0002 T10391050 PWINO FZRANO
PANA 150031Z AUTO 13010KT 3SM BR SCT007 BKN011 OVC022 M04/M05 A2992 RMK AO2 P0002 PWINO FZRANO
PANA 150027Z AUTO 13009KT 1 1/4SM BR SCT007 BKN011 OVC022 M04/M05 A2992 RMK AO2 P0002 PWINO FZRANO
PANA 150024Z AUTO 13008KT 1/2SM FZFG SCT007 BKN011 OVC022 M04/M05 A2992 RMK AO2 P0002 PWINO FZRANO
PANA 142356Z AUTO 12009KT 1/2SM FZFG BKN007 OVC014 M04/M05 A2992 RMK AO2 SNE06 CIG 004V010 SLP131 P0002 60002 T10391050 11033 21061 56014 PWINO FZRANO